Hickman, TN (38567)

9:07 PM CDT on June 02, 2015 (GMT -0500)
Commerce | | Change Station
CLOSE
Current Station
Personal Weather Station
Location: Watertown, TN
Elevation: 614 ft
Nearby Weather Stations

Elev 614 ft 36.13 °N, 86.12 °W | Updated 2 minutes ago

Overcast
Overcast
64.8 °F
Feels Like 64.8 °F
N
0.0
Wind Variable Wind from NE

Today
High -- | Low -- °F
--% Chance of Precip.
Yesterday
High -- | Low -- °F
Precip. -- in
5:27 AM 7:55 PM
Full, 100% visible
Pressure 30.03 in
Visibility 10.0 miles
Clouds Overcast 4500 ft
Dew Point 62 °F
Humidity 91%
Rainfall 0.00 in
Snow Depth Not available.
UV 0 out of 12
Pollen 5.00 out of 12
Air Quality Not available.
Flu Activity Sporadic
METAR KSRB 030155Z AUTO 03004KT 10SM OVC045 18/16 A3003 RMK

More Conditions Fewer Conditions

Pressure 30.03 in
Visibility 10.0 miles
Clouds Overcast 4500 ft
Dew Point 62 °F
Humidity 91%
Rainfall 0.00 in
Snow Depth Not available.
UV 0 out of 12
Pollen 5.00 out of 12
Air Quality Not available.
Flu Activity Sporadic
METAR KSRB 030155Z AUTO 03004KT 10SM OVC045 18/16 A3003 RMK

More Conditions Fewer Conditions

10-Day Weather Forecast

×

Almanac

Astronomy

Jun. 02, 2015 Rise Set
Actual Time
Civil Twilight
Nautical Twilight
Astronomical Twilight
Moon
Length of Visible Light
Length of Day
Tomorrow will be .
, % of the Moon is Illuminated

Today's Extremes

State Highs State Lows

Community

WunderPhotos

Upload Photos

1,826,103 photos uploaded!

WunderBlogs® & News

Nearby

Air Quality

  Air Quality AQ Index Pollutant
Not available.

Snow Depth

Station Depth Elevation

Earthquake Activity

City Distance Mag. Time & Date
Minimum magnitude displayed is 2.5.

Coastal Water Temperatures

Place Temperature

Stations

Nearby Weather Stations

Station Location Temp. Windchill Dew Point Humidity Wind Precip. Elev Updated Type